createdAt,value
2022-10-17T00:00:19.468Z,19.58
2022-10-17T00:02:46.539Z,17.70
2022-10-17T00:05:13.767Z,16.27
2022-10-17T00:07:40.834Z,18.80
2022-10-17T00:10:08.443Z,16.67
2022-10-17T00:12:35.651Z,16.70
2022-10-17T00:15:04.650Z,16.30
2022-10-17T00:17:31.855Z,18.98
2022-10-17T00:19:59.620Z,17.15
2022-10-17T00:22:27.078Z,18.10
2022-10-17T00:24:54.316Z,19.25
2022-10-17T00:27:21.383Z,18.30
2022-10-17T00:29:49.747Z,19.40
2022-10-17T00:32:16.839Z,19.38
2022-10-17T00:34:43.914Z,18.83
2022-10-17T00:37:11.129Z,18.92
2022-10-17T00:39:38.697Z,19.33
2022-10-17T00:42:05.744Z,21.67
2022-10-17T00:44:32.806Z,20.08
2022-10-17T00:47:02.516Z,19.77
2022-10-17T00:49:31.454Z,19.38
2022-10-17T00:52:00.654Z,19.92
2022-10-17T00:54:40.925Z,18.90
2022-10-17T00:57:08.025Z,20.35
2022-10-17T00:59:36.779Z,17.52
2022-10-17T01:02:05.938Z,17.75
2022-10-17T01:04:33.022Z,18.83
2022-10-17T01:07:00.082Z,18.55
2022-10-17T01:09:27.522Z,19.27
2022-10-17T01:12:05.184Z,19.15
2022-10-17T01:14:36.861Z,20.42
2022-10-17T01:17:06.704Z,21.10
2022-10-17T01:19:51.103Z,20.35
2022-10-17T01:22:24.222Z,20.77
2022-10-17T01:25:00.251Z,20.73
2022-10-17T01:27:45.975Z,19.40
2022-10-17T01:30:16.026Z,19.85
2022-10-17T01:32:56.893Z,20.33
2022-10-17T01:35:30.424Z,21.98
2022-10-17T01:38:05.706Z,21.10
2022-10-17T01:40:53.078Z,20.63
2022-10-17T01:43:29.409Z,22.75
2022-10-17T01:46:02.565Z,21.30
2022-10-17T01:48:33.759Z,23.08
2022-10-17T01:51:03.710Z,21.25
2022-10-17T01:53:33.458Z,22.60
2022-10-17T01:56:01.778Z,20.85
2022-10-17T01:58:30.261Z,22.48
2022-10-17T02:00:58.879Z,22.92
2022-10-17T02:03:26.619Z,20.30
2022-10-17T02:05:53.775Z,19.60
2022-10-17T02:08:40.514Z,21.83
2022-10-17T02:11:10.549Z,18.95
2022-10-17T02:13:49.519Z,20.17
2022-10-17T02:16:25.469Z,19.25
2022-10-17T02:19:11.244Z,19.40
2022-10-17T02:21:47.432Z,20.13
2022-10-17T02:24:17.302Z,20.77
2022-10-17T02:27:07.101Z,21.08
2022-10-17T02:29:37.273Z,20.85
2022-10-17T02:32:09.203Z,18.70
2022-10-17T02:34:43.610Z,20.33
2022-10-17T02:37:12.264Z,21.13
2022-10-17T02:39:41.018Z,21.35
2022-10-17T02:42:09.953Z,22.13
2022-10-17T02:44:38.963Z,21.45
2022-10-17T02:47:09.910Z,21.05
2022-10-17T02:49:39.979Z,22.08
2022-10-17T02:52:18.157Z,25.13
2022-10-17T02:54:48.486Z,24.58
2022-10-17T02:57:15.528Z,25.02
2022-10-17T02:59:45.071Z,23.83
2022-10-17T03:02:12.434Z,25.20
2022-10-17T03:04:43.176Z,25.05
2022-10-17T03:07:10.643Z,27.48
2022-10-17T03:09:37.730Z,25.33
2022-10-17T03:12:05.011Z,28.60
2022-10-17T03:14:32.071Z,27.63
2022-10-17T03:16:59.135Z,27.38
2022-10-17T03:19:26.272Z,27.02
2022-10-17T03:21:53.357Z,26.85
2022-10-17T03:24:20.402Z,26.25
2022-10-17T03:26:47.467Z,24.20
2022-10-17T03:29:14.897Z,24.95
2022-10-17T03:31:42.007Z,26.20
2022-10-17T03:34:09.044Z,26.23
2022-10-17T03:36:36.105Z,25.05
2022-10-17T03:39:03.150Z,25.90
2022-10-17T03:41:30.221Z,27.73
2022-10-17T03:43:57.289Z,26.30
2022-10-17T03:46:24.361Z,25.95
2022-10-17T03:48:51.396Z,26.70
2022-10-17T03:51:18.590Z,25.80
2022-10-17T03:53:45.740Z,26.15
2022-10-17T03:56:17.035Z,25.65
2022-10-17T03:58:44.224Z,25.38
2022-10-17T04:01:12.421Z,26.33
2022-10-17T04:03:39.887Z,25.88
2022-10-17T04:06:07.498Z,25.40
2022-10-17T04:08:35.087Z,27.08
2022-10-17T04:11:03.036Z,26.52
2022-10-17T04:13:30.740Z,24.42
2022-10-17T04:15:59.377Z,25.67
2022-10-17T04:18:26.651Z,26.83
2022-10-17T04:20:53.747Z,26.30
2022-10-17T04:23:21.243Z,28.13
2022-10-17T04:25:49.315Z,27.25
2022-10-17T04:28:16.518Z,24.52
2022-10-17T04:30:45.508Z,25.80
2022-10-17T04:33:13.012Z,23.30
2022-10-17T04:35:40.306Z,24.75
2022-10-17T04:38:07.355Z,25.48
2022-10-17T04:40:34.435Z,25.55
2022-10-17T04:43:01.480Z,25.05
2022-10-17T04:45:28.631Z,24.75
2022-10-17T04:47:55.751Z,24.60
2022-10-17T04:50:22.815Z,23.95
2022-10-17T04:52:49.882Z,23.33
2022-10-17T04:55:16.998Z,23.10
2022-10-17T04:57:44.051Z,22.80
2022-10-17T05:00:11.880Z,21.33
2022-10-17T05:02:38.982Z,22.38
2022-10-17T05:05:06.237Z,23.30
2022-10-17T05:07:33.304Z,21.83
2022-10-17T05:10:00.374Z,22.65
2022-10-17T05:12:27.714Z,22.98
2022-10-17T05:14:55.060Z,21.45
2022-10-17T05:17:22.130Z,23.77
2022-10-17T05:19:49.214Z,24.17
2022-10-17T05:22:16.273Z,24.50
2022-10-17T05:24:43.344Z,24.13
2022-10-17T05:27:10.424Z,24.40
2022-10-17T05:29:37.554Z,25.50
2022-10-17T05:32:05.949Z,24.38
2022-10-17T05:34:34.811Z,24.95
2022-10-17T05:37:01.982Z,22.52
2022-10-17T05:39:29.059Z,23.20
2022-10-17T05:41:56.125Z,19.00
2022-10-17T05:44:23.268Z,20.17
2022-10-17T05:46:50.468Z,20.23
2022-10-17T05:49:31.904Z,18.23
2022-10-17T05:52:00.274Z,19.38
2022-10-17T05:54:27.425Z,17.17
2022-10-17T05:56:55.163Z,18.67
2022-10-17T05:59:22.624Z,18.33
2022-10-17T06:01:49.914Z,17.60
2022-10-17T06:04:17.666Z,17.38
2022-10-17T06:06:44.762Z,15.40
2022-10-17T06:09:11.898Z,16.77
2022-10-17T06:11:39.311Z,16.60
2022-10-17T06:14:06.562Z,16.98
2022-10-17T06:16:33.659Z,15.10
2022-10-17T06:19:00.744Z,14.23
2022-10-17T06:21:28.333Z,14.38
2022-10-17T06:23:55.397Z,16.00
2022-10-17T06:26:22.527Z,13.85
2022-10-17T06:28:49.725Z,13.52
2022-10-17T06:31:17.233Z,13.50
2022-10-17T06:33:44.285Z,13.55
2022-10-17T06:36:12.508Z,13.35
2022-10-17T06:38:39.561Z,13.23
2022-10-17T06:41:08.748Z,15.98
2022-10-17T06:43:37.074Z,13.90
2022-10-17T06:46:04.697Z,12.95
2022-10-17T06:48:31.870Z,13.35
2022-10-17T06:51:02.647Z,14.05
2022-10-17T06:53:30.307Z,14.13
2022-10-17T06:56:03.081Z,13.57
2022-10-17T06:58:34.110Z,13.48
2022-10-17T07:01:02.192Z,13.52
2022-10-17T07:03:29.484Z,13.18
2022-10-17T07:05:57.005Z,12.93
2022-10-17T07:08:24.094Z,15.82
2022-10-17T07:10:51.518Z,11.45
2022-10-17T07:13:18.907Z,11.40
2022-10-17T07:15:46.393Z,12.00
2022-10-17T07:18:13.760Z,10.02
2022-10-17T07:20:40.844Z,11.38
2022-10-17T07:23:07.912Z,10.80
2022-10-17T07:25:39.284Z,10.70
2022-10-17T07:28:07.351Z,9.57
2022-10-17T07:30:34.519Z,9.70
2022-10-17T07:33:02.782Z,10.32
2022-10-17T07:35:29.967Z,10.63
2022-10-17T07:37:57.085Z,9.18
2022-10-17T07:40:24.138Z,9.80
2022-10-17T07:42:51.229Z,8.65
2022-10-17T07:45:18.322Z,9.10
2022-10-17T07:47:45.371Z,8.50
2022-10-17T07:50:12.625Z,9.45
2022-10-17T07:52:39.804Z,9.23
2022-10-17T07:55:07.813Z,9.57
2022-10-17T07:57:34.906Z,8.98
2022-10-17T08:00:01.992Z,7.28
2022-10-17T08:02:29.456Z,8.70
2022-10-17T08:04:56.993Z,9.27
2022-10-17T08:07:28.343Z,9.40
2022-10-17T08:09:56.545Z,8.98
2022-10-17T08:12:24.980Z,8.85
2022-10-17T08:14:52.045Z,8.45
2022-10-17T08:17:19.112Z,8.52
2022-10-17T08:19:46.148Z,8.73
2022-10-17T08:22:13.201Z,8.90
2022-10-17T08:24:40.278Z,7.95
2022-10-17T08:27:11.358Z,7.75
2022-10-17T08:29:39.136Z,8.73
2022-10-17T08:32:09.614Z,8.85
2022-10-17T08:34:37.019Z,8.02
2022-10-17T08:37:04.168Z,9.63
2022-10-17T08:39:31.292Z,10.35
2022-10-17T08:42:17.380Z,12.07
2022-10-17T08:44:55.280Z,7.35
2022-10-17T08:47:28.413Z,8.10
2022-10-17T08:50:00.743Z,11.20
2022-10-17T08:52:40.575Z,8.07
2022-10-17T08:55:15.171Z,9.05
2022-10-17T08:57:42.360Z,9.40
2022-10-17T09:00:16.205Z,9.25
2022-10-17T09:03:15.001Z,8.90
2022-10-17T09:05:47.002Z,10.25
2022-10-17T09:08:17.118Z,9.68
2022-10-17T09:10:44.162Z,7.90
2022-10-17T09:13:25.580Z,9.70
2022-10-17T09:16:04.763Z,8.05
2022-10-17T09:18:33.492Z,8.68
2022-10-17T09:21:09.731Z,7.95
2022-10-17T09:23:45.926Z,9.15
2022-10-17T09:26:13.150Z,7.82
2022-10-17T09:28:41.565Z,9.02
2022-10-17T09:31:15.103Z,8.13
2022-10-17T09:33:54.395Z,8.02
2022-10-17T09:36:23.960Z,8.65
2022-10-17T09:38:55.036Z,7.75
2022-10-17T09:44:14.082Z,8.07
2022-10-17T09:46:41.401Z,7.37
2022-10-17T09:49:16.431Z,8.85
2022-10-17T09:51:44.890Z,7.90
2022-10-17T09:54:34.747Z,7.72
2022-10-17T09:57:06.408Z,7.72
2022-10-17T09:59:34.447Z,7.80
2022-10-17T10:02:13.751Z,8.10
2022-10-17T10:05:03.655Z,7.97
2022-10-17T10:07:32.689Z,7.97
2022-10-17T10:10:00.840Z,8.25
2022-10-17T10:12:29.724Z,7.55
2022-10-17T10:14:57.766Z,7.53
2022-10-17T10:17:34.177Z,6.82
2022-10-17T10:20:01.617Z,8.38
2022-10-17T10:22:29.244Z,7.70
2022-10-17T10:25:08.527Z,6.65
2022-10-17T10:27:36.166Z,6.60
2022-10-17T10:30:03.501Z,7.38
2022-10-17T10:32:32.750Z,7.45
2022-10-17T10:35:01.760Z,7.90
2022-10-17T10:37:36.367Z,7.30
2022-10-17T10:40:05.254Z,6.80
2022-10-17T10:42:33.714Z,7.25
2022-10-17T10:45:03.657Z,6.28
2022-10-17T10:47:31.918Z,6.80
2022-10-17T10:50:17.447Z,6.85
2022-10-17T10:52:47.730Z,6.50
2022-10-17T10:55:28.463Z,7.05
2022-10-17T10:57:59.367Z,7.95
2022-10-17T11:03:12.826Z,7.57
2022-10-17T11:05:46.017Z,7.95
2022-10-17T11:08:22.645Z,8.10
2022-10-17T11:10:52.618Z,6.13
2022-10-17T11:13:19.684Z,7.17
2022-10-17T11:15:48.882Z,7.32
2022-10-17T11:18:25.159Z,7.80
2022-10-17T11:21:00.255Z,8.75
2022-10-17T11:23:27.290Z,6.60
2022-10-17T11:25:55.341Z,8.32
2022-10-17T11:28:23.840Z,7.20
2022-10-17T11:30:53.021Z,8.63
2022-10-17T11:33:58.746Z,7.60
2022-10-17T11:36:28.898Z,8.05
2022-10-17T11:39:06.931Z,6.78
2022-10-17T11:41:55.503Z,6.32
2022-10-17T11:44:42.111Z,8.07
2022-10-17T11:47:27.799Z,7.18
2022-10-17T11:49:58.641Z,14.05
2022-10-17T11:52:51.839Z,8.20
2022-10-17T11:55:21.477Z,8.38
2022-10-17T11:58:07.263Z,34.55
2022-10-17T12:00:46.171Z,21.20
2022-10-17T12:03:30.673Z,15.48
2022-10-17T12:05:57.776Z,16.02
2022-10-17T12:08:31.275Z,13.15
2022-10-17T12:11:04.337Z,8.15
2022-10-17T12:13:35.600Z,8.27
2022-10-17T12:16:21.135Z,6.72
2022-10-17T12:18:49.004Z,6.55
2022-10-17T12:21:16.242Z,7.40
2022-10-17T12:23:52.182Z,8.00
2022-10-17T12:26:26.991Z,7.40
2022-10-17T12:28:54.377Z,8.02
2022-10-17T12:31:29.766Z,7.25
2022-10-17T12:34:04.892Z,7.55
2022-10-17T12:36:31.961Z,6.93
2022-10-17T12:39:02.297Z,6.68
2022-10-17T12:41:42.452Z,6.35
2022-10-17T12:44:16.659Z,7.23
2022-10-17T12:47:02.717Z,6.47
2022-10-17T12:49:49.687Z,6.88
2022-10-17T12:52:26.894Z,7.03
2022-10-17T12:55:12.743Z,6.80
2022-10-17T12:57:52.649Z,6.63
2022-10-17T13:00:22.250Z,7.18
2022-10-17T13:02:50.632Z,6.60
2022-10-17T13:05:22.391Z,7.50
2022-10-17T13:07:50.287Z,7.03
2022-10-17T13:10:28.501Z,6.88
2022-10-17T13:13:02.214Z,7.60
2022-10-17T13:15:29.554Z,8.02
2022-10-17T13:18:01.008Z,6.97
2022-10-17T13:20:31.419Z,7.78
2022-10-17T13:22:59.089Z,7.22
2022-10-17T13:25:27.154Z,7.70
2022-10-17T13:28:04.508Z,7.25
2022-10-17T13:30:33.150Z,7.40
2022-10-17T13:33:00.667Z,6.38
2022-10-17T13:38:22.255Z,7.10
2022-10-17T13:40:50.484Z,8.32
2022-10-17T13:43:20.237Z,8.45
2022-10-17T13:45:49.588Z,7.82
2022-10-17T13:48:21.296Z,8.23
2022-10-17T13:50:50.350Z,8.25
2022-10-17T13:53:26.809Z,8.27
2022-10-17T13:56:09.355Z,8.68
2022-10-17T13:58:43.430Z,8.40
2022-10-17T14:01:11.604Z,8.43
2022-10-17T14:03:48.499Z,8.40
2022-10-17T14:06:16.295Z,7.43
2022-10-17T14:08:55.568Z,7.60
2022-10-17T14:11:41.710Z,7.97
2022-10-17T14:14:18.578Z,9.02
2022-10-17T14:16:45.746Z,10.52
2022-10-17T14:19:21.747Z,9.82
2022-10-17T14:21:49.518Z,9.45
2022-10-17T14:24:22.611Z,10.02
2022-10-17T14:26:51.030Z,8.57
2022-10-17T14:29:23.508Z,7.90
2022-10-17T14:31:53.530Z,9.23
2022-10-17T14:34:22.880Z,9.23
2022-10-17T14:36:52.113Z,9.10
2022-10-17T14:39:20.893Z,8.82
2022-10-17T14:41:48.675Z,8.32
2022-10-17T14:44:36.031Z,8.43
2022-10-17T14:47:30.122Z,9.63
2022-10-17T14:49:52.788Z,8.57
2022-10-17T14:52:19.927Z,8.65
2022-10-17T14:54:50.713Z,8.65
2022-10-17T14:57:19.243Z,9.88
2022-10-17T14:59:55.400Z,8.48
2022-10-17T15:02:24.243Z,9.95
2022-10-17T15:04:51.422Z,9.43
2022-10-17T15:07:19.210Z,8.77
2022-10-17T15:09:48.019Z,7.40
2022-10-17T15:12:16.857Z,9.63
2022-10-17T15:14:44.505Z,9.60
2022-10-17T15:17:18.568Z,9.57
2022-10-17T15:19:45.732Z,8.48
2022-10-17T15:22:12.975Z,8.65
2022-10-17T15:24:40.103Z,8.93
2022-10-17T15:27:36.746Z,8.18
2022-10-17T15:30:04.406Z,8.95
2022-10-17T15:32:31.555Z,9.10
2022-10-17T15:34:58.652Z,10.20
2022-10-17T15:37:26.573Z,10.68
2022-10-17T15:39:54.964Z,10.82
2022-10-17T15:42:23.362Z,10.80
2022-10-17T15:44:50.582Z,8.93
2022-10-17T15:47:23.549Z,9.23
2022-10-17T15:49:50.712Z,10.07
2022-10-17T15:52:17.854Z,10.43
2022-10-17T15:54:44.962Z,10.55
2022-10-17T15:57:17.411Z,10.00
2022-10-17T15:59:46.873Z,10.30
2022-10-17T16:02:15.156Z,10.65
2022-10-17T16:04:42.770Z,11.25
2022-10-17T16:07:10.307Z,11.63
2022-10-17T16:09:37.764Z,11.85
2022-10-17T16:12:06.721Z,13.48
2022-10-17T16:14:33.970Z,12.45
2022-10-17T16:17:01.604Z,13.38
2022-10-17T16:19:30.022Z,15.38
2022-10-17T16:21:59.642Z,20.65
2022-10-17T16:24:29.348Z,19.33
2022-10-17T16:26:56.490Z,21.50
2022-10-17T16:29:23.662Z,19.73
2022-10-17T16:31:50.749Z,15.18
2022-10-17T16:34:17.831Z,14.88
2022-10-17T16:36:44.915Z,14.27
2022-10-17T16:39:12.077Z,14.48
2022-10-17T16:41:39.813Z,13.75
2022-10-17T16:44:08.379Z,14.73
2022-10-17T16:46:37.135Z,17.00
2022-10-17T16:49:05.392Z,17.88
2022-10-17T16:51:33.775Z,19.30
2022-10-17T16:54:00.854Z,18.23
2022-10-17T16:56:32.759Z,18.75
2022-10-17T16:59:00.383Z,16.73
2022-10-17T17:01:29.346Z,18.73
2022-10-17T17:03:57.053Z,19.02
2022-10-17T17:06:26.640Z,15.93
2022-10-17T17:08:54.338Z,17.83
2022-10-17T17:11:22.452Z,19.15
2022-10-17T17:13:49.967Z,17.48
2022-10-17T17:16:21.541Z,18.70
2022-10-17T17:18:51.361Z,21.27
2022-10-17T17:21:18.572Z,24.92
2022-10-17T17:23:45.884Z,18.17
2022-10-17T17:26:15.182Z,19.23
2022-10-17T17:28:42.744Z,19.80
2022-10-17T17:31:14.749Z,19.33
2022-10-17T17:33:42.569Z,17.77
2022-10-17T17:36:11.400Z,15.75
2022-10-17T17:38:40.073Z,13.35
2022-10-17T17:41:07.256Z,14.05
2022-10-17T17:43:34.458Z,13.95
2022-10-17T17:46:02.470Z,12.82
2022-10-17T17:48:29.924Z,12.30
2022-10-17T17:50:57.231Z,13.07
2022-10-17T17:53:24.412Z,12.35
2022-10-17T17:56:01.493Z,12.65
2022-10-17T17:58:28.655Z,11.55
2022-10-17T18:00:55.819Z,12.55
2022-10-17T18:03:22.992Z,12.60
2022-10-17T18:05:50.132Z,12.07
2022-10-17T18:08:17.230Z,12.65
2022-10-17T18:10:48.380Z,12.70
2022-10-17T18:13:15.663Z,12.65
2022-10-17T18:15:43.571Z,13.27
2022-10-17T18:18:10.928Z,12.93
2022-10-17T18:20:44.196Z,13.95
2022-10-17T18:23:11.673Z,13.88
2022-10-17T18:25:38.922Z,13.52
2022-10-17T18:28:06.300Z,14.65
2022-10-17T18:30:34.526Z,13.48
2022-10-17T18:33:01.744Z,14.32
2022-10-17T18:35:28.940Z,13.93
2022-10-17T18:37:57.017Z,13.93
2022-10-17T18:40:24.190Z,13.40
2022-10-17T18:42:51.262Z,13.65
2022-10-17T18:45:18.420Z,12.52
2022-10-17T18:47:52.525Z,15.30
2022-10-17T18:50:20.244Z,13.80
2022-10-17T18:52:48.013Z,13.20
2022-10-17T18:55:16.419Z,14.48
2022-10-17T18:57:43.646Z,14.85
2022-10-17T19:00:11.153Z,16.02
2022-10-17T19:02:38.307Z,13.98
2022-10-17T19:05:05.697Z,14.32
2022-10-17T19:07:33.016Z,14.98
2022-10-17T19:10:00.429Z,14.52
2022-10-17T19:12:27.547Z,14.10
2022-10-17T19:14:56.261Z,13.68
2022-10-17T19:17:23.524Z,14.73
2022-10-17T19:19:52.261Z,14.93
2022-10-17T19:22:19.463Z,15.40
2022-10-17T19:24:46.655Z,15.52
2022-10-17T19:27:13.848Z,15.40
2022-10-17T19:29:43.560Z,15.98
2022-10-17T19:32:15.690Z,17.48
2022-10-17T19:34:45.279Z,15.77
2022-10-17T19:37:12.494Z,15.95
2022-10-17T19:39:39.728Z,15.90
2022-10-17T19:42:07.248Z,15.18
2022-10-17T19:44:34.661Z,16.30
2022-10-17T19:47:01.760Z,17.20
2022-10-17T19:49:28.869Z,16.27
2022-10-17T19:51:55.951Z,16.48
2022-10-17T19:54:23.477Z,15.93
2022-10-17T19:56:50.631Z,16.27
2022-10-17T19:59:18.107Z,16.35
2022-10-17T20:01:46.039Z,16.90
2022-10-17T20:04:13.728Z,16.80
2022-10-17T20:06:41.326Z,16.98
2022-10-17T20:09:11.187Z,18.15
2022-10-17T20:11:41.242Z,18.63
2022-10-17T20:14:08.453Z,18.25
2022-10-17T20:16:36.262Z,19.30
2022-10-17T20:19:05.824Z,18.88
2022-10-17T20:21:35.156Z,16.70
2022-10-17T20:24:03.023Z,18.27
2022-10-17T20:26:38.158Z,18.10
2022-10-17T20:29:10.714Z,18.08
2022-10-17T20:31:38.517Z,17.92
2022-10-17T20:34:06.082Z,17.73
2022-10-17T20:36:36.939Z,18.42
2022-10-17T20:39:05.036Z,17.85
2022-10-17T20:41:32.438Z,16.65
2022-10-17T20:43:59.743Z,16.50
2022-10-17T20:46:36.887Z,18.60
2022-10-17T20:49:08.225Z,17.20
2022-10-17T20:51:35.862Z,17.60
2022-10-17T20:54:03.493Z,17.35
2022-10-17T20:56:31.609Z,17.70
2022-10-17T20:59:00.394Z,18.08
2022-10-17T21:01:27.845Z,17.77
2022-10-17T21:03:55.158Z,18.02
2022-10-17T21:06:22.888Z,17.67
2022-10-17T21:08:52.437Z,16.85
2022-10-17T21:11:20.954Z,17.95
2022-10-17T21:13:48.522Z,18.70
2022-10-17T21:16:17.179Z,18.80
2022-10-17T21:18:44.682Z,18.67
2022-10-17T21:21:19.323Z,17.33
2022-10-17T21:23:47.677Z,17.80
2022-10-17T21:26:15.253Z,16.63
2022-10-17T21:28:43.129Z,17.75
2022-10-17T21:31:16.015Z,16.77
2022-10-17T21:33:45.678Z,17.40
2022-10-17T21:36:16.832Z,18.27
2022-10-17T21:38:44.899Z,16.75
2022-10-17T21:41:13.882Z,18.77
2022-10-17T21:43:41.389Z,18.55
2022-10-17T21:46:10.237Z,17.98
2022-10-17T21:48:37.363Z,18.17
2022-10-17T21:51:05.526Z,17.88
2022-10-17T21:53:33.235Z,17.75
2022-10-17T21:56:01.251Z,18.20
2022-10-17T21:58:28.653Z,19.35
2022-10-17T22:01:13.649Z,18.48
2022-10-17T22:03:46.858Z,16.65
2022-10-17T22:06:39.643Z,16.77
2022-10-17T22:09:07.017Z,17.83
2022-10-17T22:11:35.975Z,17.02
2022-10-17T22:14:05.680Z,17.58
2022-10-17T22:16:33.281Z,16.25
2022-10-17T22:19:05.086Z,16.20
2022-10-17T22:21:33.909Z,16.33
2022-10-17T22:24:03.304Z,17.88
2022-10-17T22:26:31.282Z,17.48
2022-10-17T22:28:58.557Z,16.20
2022-10-17T22:31:25.995Z,16.55
2022-10-17T22:33:53.403Z,16.00
2022-10-17T22:36:20.554Z,17.20
2022-10-17T22:38:50.189Z,17.17
2022-10-17T22:41:17.257Z,17.13
2022-10-17T22:43:44.502Z,17.17
2022-10-17T22:46:13.352Z,16.70
2022-10-17T22:48:40.466Z,16.50
2022-10-17T22:51:15.138Z,16.45
2022-10-17T22:53:42.687Z,16.15
2022-10-17T22:56:20.198Z,16.02
2022-10-17T22:58:47.538Z,16.85
2022-10-17T23:01:16.176Z,17.83
2022-10-17T23:03:43.705Z,18.50
2022-10-17T23:06:11.246Z,18.90
2022-10-17T23:08:38.346Z,18.33
2022-10-17T23:11:05.880Z,18.05
2022-10-17T23:13:32.984Z,17.65
2022-10-17T23:16:00.121Z,17.33
2022-10-17T23:18:27.621Z,16.08
2022-10-17T23:20:55.412Z,16.27
2022-10-17T23:23:22.818Z,14.55
2022-10-17T23:25:50.510Z,17.02
2022-10-17T23:28:17.967Z,16.98
2022-10-17T23:30:45.064Z,15.23
2022-10-17T23:33:13.174Z,14.90
2022-10-17T23:35:40.551Z,16.17
2022-10-17T23:38:07.651Z,15.40
2022-10-17T23:40:35.338Z,13.90
2022-10-17T23:43:02.784Z,14.60
2022-10-17T23:45:33.402Z,13.35
2022-10-17T23:48:04.047Z,14.93
2022-10-17T23:50:31.170Z,13.88
2022-10-17T23:52:58.236Z,14.80
2022-10-17T23:55:25.315Z,14.65
2022-10-17T23:57:52.394Z,16.60
